الصفحة الرئيسية
METAR-TAF:

METAR-TAF

مطار :

بادنغ, إندونيسيا

دائرة عرض: 00-47-12S, خط طول: 100-16-50E, ارتفاع: 5 متر

مراقبة الطقس الحالي

تاريخ ووقت الإصدار 4ساعات و 33 دقيقة قبل الساعة 18:00UTC
ريح 2 عقدة من الشمال الشرقي
درجة الحرارة 25°درجة مئوية
الرطوبة 89%
ضغط 1010 hPa
الرؤية 10 كم أو أكثر
غيوم متفرقة على ارتفاع 2000 قدم

METAR: WIEE 251800Z 05002KT 9999 SCT020 25/23 Q1010

زمن: 05:33 (22:33 UTC)

توقعات

تاريخ ووقت الإصدار 5ساعات و 33 دقيقة قبل الساعة 17:00UTC
التوقعات صالحة من25 الساعة 18 UTC إلى 26 الساعة 18 UTC
ريح 2 عقدةمن اتجاهات متغيرة
الرؤية 10 كم أو أكثر
غيوم متفرقة على ارتفاع 2000 قدم
أصبح
من 25 الساعة 23 UTC إلى 26 الساعة 01 UTC
ريح 2 عقدة من الشمال
غيوم قليلة على ارتفاع 2000 قدم

TAF: WIEE 251700Z 2518/2618 VRB02KT 9999 SCT020 BECMG 2523/2601 35002KT FEW020

أرصاد الطقس والتوقعات من أكثر من 4000 مطار (تقارير الطقس للمطار METAR والتنبؤ بالطقس بالمطارTAF).

المحطات المتاحة هي النقط الصفراء والحمراء على الخريطة.

حرك المؤشر فوق النقطة لمعرفة اسم المحطة.

ثم انقر لمعرفة أرصاد وتوقعات الطقس.

لتغيير الخارطة: اضغط على الأزرار الخضراء مع رمز الصليب الأسود للتكبير. على الزر الأخضر مع شرطة للتصغير، أو على الأسهم الخضراء للخرائط المجاورة.


METAR-TAF: